createdAt,value
2019-01-24T00:00:44.569Z,0
2019-01-24T00:01:52.652Z,0
2019-01-24T00:03:00.688Z,0
2019-01-24T00:04:08.734Z,0
2019-01-24T00:05:16.795Z,0
2019-01-24T00:06:24.839Z,0
2019-01-24T00:07:32.911Z,0
2019-01-24T00:08:40.955Z,0
2019-01-24T00:09:49.002Z,0
2019-01-24T00:10:57.060Z,0
2019-01-24T00:12:05.108Z,0
2019-01-24T00:13:13.165Z,0
2019-01-24T00:14:21.248Z,0
2019-01-24T00:15:29.282Z,0
2019-01-24T00:16:37.369Z,0
2019-01-24T00:17:45.394Z,0
2019-01-24T00:18:53.477Z,0
2019-01-24T00:20:01.488Z,0
2019-01-24T00:21:09.548Z,0
2019-01-24T00:22:17.603Z,0
2019-01-24T00:23:25.672Z,0
2019-01-24T00:24:33.701Z,0
2019-01-24T00:25:41.774Z,0
2019-01-24T00:26:49.820Z,0
2019-01-24T00:27:57.879Z,0
2019-01-24T00:29:05.935Z,0
2019-01-24T00:30:13.958Z,0
2019-01-24T00:31:22.044Z,0
2019-01-24T00:32:30.106Z,0
2019-01-24T00:33:38.150Z,0
2019-01-24T00:34:46.241Z,0
2019-01-24T00:35:54.274Z,0
2019-01-24T00:37:02.307Z,0
2019-01-24T00:38:10.369Z,0
2019-01-24T00:39:18.416Z,0
2019-01-24T00:40:26.472Z,0
2019-01-24T00:41:34.518Z,0
2019-01-24T00:42:42.589Z,0
2019-01-24T00:43:50.633Z,0
2019-01-24T00:44:58.687Z,0
2019-01-24T00:46:06.751Z,0
2019-01-24T00:47:14.799Z,0
2019-01-24T00:48:22.853Z,0
2019-01-24T00:49:30.894Z,0
2019-01-24T00:50:38.969Z,0
2019-01-24T00:51:47.056Z,0
2019-01-24T00:52:55.064Z,0
2019-01-24T00:54:03.123Z,0
2019-01-24T00:55:11.167Z,0
2019-01-24T00:56:19.235Z,0
2019-01-24T00:57:27.277Z,0
2019-01-24T00:58:35.344Z,0
2019-01-24T00:59:43.400Z,0
2019-01-24T01:00:51.443Z,0
2019-01-24T01:01:59.512Z,0
2019-01-24T01:03:07.561Z,0
2019-01-24T01:04:15.611Z,0
2019-01-24T01:05:23.665Z,0
2019-01-24T01:06:31.726Z,0
2019-01-24T01:07:39.784Z,0
2019-01-24T01:08:47.823Z,0
2019-01-24T01:09:55.900Z,0
2019-01-24T01:11:03.910Z,0
2019-01-24T01:12:11.988Z,0
2019-01-24T01:13:20.046Z,0
2019-01-24T01:14:28.101Z,0
2019-01-24T01:15:36.158Z,0
2019-01-24T01:16:44.181Z,0
2019-01-24T01:17:52.251Z,0
2019-01-24T01:19:00.316Z,0
2019-01-24T01:20:08.390Z,0
2019-01-24T01:21:16.421Z,0
2019-01-24T01:22:24.461Z,0
2019-01-24T01:23:32.534Z,0
2019-01-24T01:24:40.583Z,0
2019-01-24T01:25:48.758Z,0
2019-01-24T01:26:56.697Z,0
2019-01-24T01:28:04.751Z,0
2019-01-24T01:29:12.849Z,0
2019-01-24T01:30:20.877Z,0
2019-01-24T01:31:28.918Z,0
2019-01-24T01:32:36.963Z,0
2019-01-24T01:33:45.001Z,0
2019-01-24T01:34:53.078Z,0
2019-01-24T01:36:01.148Z,0
2019-01-24T01:37:09.191Z,0
2019-01-24T01:38:17.493Z,0
2019-01-24T01:39:25.297Z,0
2019-01-24T01:40:33.346Z,0
2019-01-24T01:41:41.408Z,0
2019-01-24T01:42:49.469Z,0
2019-01-24T01:43:57.521Z,0
2019-01-24T01:45:05.569Z,0
2019-01-24T01:46:13.622Z,0
2019-01-24T01:47:21.679Z,0
2019-01-24T01:48:29.741Z,0
2019-01-24T01:49:37.795Z,0
2019-01-24T01:50:45.838Z,0
2019-01-24T01:51:53.861Z,0
2019-01-24T01:53:01.960Z,0
2019-01-24T01:54:10.004Z,0
2019-01-24T01:55:18.053Z,0
2019-01-24T01:56:26.107Z,0
2019-01-24T01:57:34.143Z,0
2019-01-24T01:58:42.217Z,0
2019-01-24T01:59:50.276Z,0
2019-01-24T02:00:58.319Z,0
2019-01-24T02:02:06.373Z,0
2019-01-24T02:03:14.398Z,0
2019-01-24T02:04:22.494Z,0
2019-01-24T02:05:30.529Z,0
2019-01-24T02:06:38.625Z,0
2019-01-24T02:07:46.658Z,0
2019-01-24T02:08:54.680Z,0
2019-01-24T02:10:02.760Z,0
2019-01-24T02:11:10.810Z,0
2019-01-24T02:12:18.870Z,0
2019-01-24T02:13:26.930Z,0
2019-01-24T02:14:34.966Z,0
2019-01-24T02:15:43.035Z,0
2019-01-24T02:16:51.071Z,0
2019-01-24T02:17:59.130Z,0
2019-01-24T02:19:07.201Z,0
2019-01-24T02:20:15.250Z,0
2019-01-24T02:21:23.294Z,0
2019-01-24T02:22:31.378Z,0
2019-01-24T02:23:39.441Z,0
2019-01-24T02:24:47.476Z,0
2019-01-24T02:25:55.543Z,0
2019-01-24T02:27:03.570Z,0
2019-01-24T02:28:11.629Z,0
2019-01-24T02:29:19.680Z,0
2019-01-24T02:30:27.733Z,0
2019-01-24T02:31:35.779Z,0
2019-01-24T02:32:43.840Z,0
2019-01-24T02:33:51.909Z,0
2019-01-24T02:34:59.963Z,0
2019-01-24T02:36:08.013Z,0
2019-01-24T02:37:16.069Z,0
2019-01-24T02:38:24.102Z,0
2019-01-24T02:39:32.174Z,0
2019-01-24T02:40:40.266Z,0
2019-01-24T02:41:48.330Z,0
2019-01-24T02:42:56.335Z,0
2019-01-24T02:44:04.407Z,0
2019-01-24T02:45:12.436Z,0
2019-01-24T02:46:20.497Z,0
2019-01-24T02:47:28.548Z,0
2019-01-24T02:48:36.605Z,0
2019-01-24T02:49:44.644Z,0
2019-01-24T02:50:52.741Z,0
2019-01-24T02:52:00.763Z,0
2019-01-24T02:53:08.812Z,0
2019-01-24T02:54:16.869Z,0
2019-01-24T02:55:24.927Z,0
2019-01-24T02:56:32.983Z,0
2019-01-24T02:57:41.033Z,0
2019-01-24T02:58:49.094Z,0
2019-01-24T02:59:57.392Z,0
2019-01-24T03:01:05.439Z,0
2019-01-24T03:02:13.491Z,0
2019-01-24T03:03:21.513Z,0
2019-01-24T03:04:29.565Z,0
2019-01-24T03:05:37.622Z,0
2019-01-24T03:06:45.686Z,0
2019-01-24T03:07:53.730Z,0
2019-01-24T03:09:01.783Z,0
2019-01-24T03:10:09.850Z,0
2019-01-24T03:11:17.888Z,0
2019-01-24T03:12:25.950Z,0
2019-01-24T03:13:33.996Z,0
2019-01-24T03:14:42.054Z,0
2019-01-24T03:15:50.117Z,0
2019-01-24T03:16:58.174Z,0
2019-01-24T03:18:06.250Z,0
2019-01-24T03:19:14.247Z,0
2019-01-24T03:20:22.335Z,0
2019-01-24T03:21:30.389Z,0
2019-01-24T03:22:38.443Z,0
2019-01-24T03:23:46.488Z,0
2019-01-24T03:24:54.526Z,0
2019-01-24T03:26:02.602Z,0
2019-01-24T03:27:10.649Z,0
2019-01-24T03:28:18.699Z,0
2019-01-24T03:29:26.766Z,0
2019-01-24T03:30:34.798Z,0
2019-01-24T03:31:42.874Z,0
2019-01-24T03:32:50.930Z,0
2019-01-24T03:33:58.978Z,0
2019-01-24T03:35:07.034Z,0
2019-01-24T03:36:15.121Z,0
2019-01-24T03:37:23.144Z,0
2019-01-24T03:38:31.212Z,0
2019-01-24T03:39:39.250Z,0
2019-01-24T03:40:47.308Z,0
2019-01-24T03:41:55.362Z,0
2019-01-24T03:43:03.411Z,0
2019-01-24T03:44:11.472Z,0
2019-01-24T03:45:19.553Z,0
2019-01-24T03:46:27.582Z,0
2019-01-24T03:47:35.636Z,0
2019-01-24T03:48:43.683Z,0
2019-01-24T03:49:51.751Z,0
2019-01-24T03:50:59.802Z,0
2019-01-24T03:52:07.848Z,0
2019-01-24T03:53:15.923Z,0
2019-01-24T03:54:23.942Z,0
2019-01-24T03:55:32.015Z,0
2019-01-24T03:56:40.073Z,0
2019-01-24T03:57:48.122Z,0
2019-01-24T03:58:56.188Z,0
2019-01-24T04:00:04.210Z,0
2019-01-24T04:01:12.284Z,0
2019-01-24T04:02:20.344Z,0
2019-01-24T04:03:28.396Z,0
2019-01-24T04:04:36.461Z,0
2019-01-24T04:05:44.489Z,0
2019-01-24T04:06:52.561Z,0
2019-01-24T04:08:00.621Z,0
2019-01-24T04:09:08.674Z,0
2019-01-24T04:10:16.711Z,0
2019-01-24T04:11:24.777Z,0
2019-01-24T04:12:32.837Z,0
2019-01-24T04:13:40.921Z,0
2019-01-24T04:14:48.976Z,0
2019-01-24T04:15:57.001Z,0
2019-01-24T04:17:05.054Z,0
2019-01-24T04:18:13.107Z,0
2019-01-24T04:19:21.152Z,0
2019-01-24T04:20:29.217Z,0
2019-01-24T04:21:37.266Z,0
2019-01-24T04:22:45.316Z,0
2019-01-24T04:23:53.389Z,0
2019-01-24T04:25:01.435Z,0
2019-01-24T04:26:09.479Z,0
2019-01-24T04:27:17.527Z,0
2019-01-24T04:28:25.605Z,0
2019-01-24T04:29:33.680Z,0
2019-01-24T04:30:41.746Z,0
2019-01-24T04:31:49.784Z,0
2019-01-24T04:32:57.856Z,0
2019-01-24T04:34:05.874Z,0
2019-01-24T04:35:19.620Z,0
2019-01-24T04:36:21.970Z,0
2019-01-24T04:37:30.116Z,0
2019-01-24T04:38:38.097Z,0
2019-01-24T04:39:46.145Z,0
2019-01-24T04:40:54.162Z,0
2019-01-24T04:42:02.257Z,0
2019-01-24T04:43:10.316Z,0
2019-01-24T04:44:18.369Z,0
2019-01-24T04:45:26.417Z,0
2019-01-24T04:46:34.438Z,0
2019-01-24T04:47:42.520Z,0
2019-01-24T04:48:50.584Z,0
2019-01-24T04:49:58.667Z,0
2019-01-24T04:51:06.691Z,0
2019-01-24T04:52:14.727Z,0
2019-01-24T04:53:22.775Z,0
2019-01-24T04:54:30.845Z,0
2019-01-24T04:55:38.902Z,0
2019-01-24T04:56:46.948Z,0
2019-01-24T04:57:55.130Z,0
2019-01-24T04:59:03.060Z,0
2019-01-24T05:00:11.119Z,0
2019-01-24T05:01:19.175Z,0
2019-01-24T05:02:27.218Z,0
2019-01-24T05:03:35.270Z,0
2019-01-24T05:04:43.339Z,0
2019-01-24T05:05:51.394Z,0
2019-01-24T05:06:59.454Z,0
2019-01-24T05:08:07.537Z,0
2019-01-24T05:09:15.556Z,0
2019-01-24T05:10:23.600Z,0
2019-01-24T05:11:31.661Z,0
2019-01-24T05:12:39.715Z,0
2019-01-24T05:13:47.772Z,0
2019-01-24T05:14:55.819Z,0
2019-01-24T05:16:03.863Z,0
2019-01-24T05:17:11.932Z,0
2019-01-24T05:18:19.999Z,0
2019-01-24T05:19:28.047Z,0
2019-01-24T05:20:36.103Z,0
2019-01-24T05:21:44.142Z,0
2019-01-24T05:22:52.206Z,0
2019-01-24T05:24:00.246Z,0
2019-01-24T05:25:08.307Z,0
2019-01-24T05:26:16.381Z,0
2019-01-24T05:27:24.398Z,0
2019-01-24T05:28:32.480Z,0
2019-01-24T05:29:40.547Z,0
2019-01-24T05:30:48.587Z,0
2019-01-24T05:31:56.646Z,0
2019-01-24T05:33:04.679Z,0
2019-01-24T05:34:12.760Z,0
2019-01-24T05:35:20.818Z,0
2019-01-24T05:36:31.426Z,0
2019-01-24T05:37:36.923Z,0
2019-01-24T05:38:44.975Z,0
2019-01-24T05:39:53.030Z,0
2019-01-24T05:41:01.087Z,0
2019-01-24T05:42:09.427Z,0
2019-01-24T05:43:17.188Z,0
2019-01-24T05:44:25.233Z,0
2019-01-24T05:45:33.344Z,0
2019-01-24T05:46:41.618Z,0
2019-01-24T05:47:49.412Z,0
2019-01-24T05:48:57.469Z,0
2019-01-24T05:50:05.527Z,0
2019-01-24T05:51:13.571Z,0
2019-01-24T05:52:21.634Z,0
2019-01-24T05:53:29.694Z,0
2019-01-24T05:54:37.739Z,0
2019-01-24T05:55:45.788Z,0
2019-01-24T05:56:53.843Z,0
2019-01-24T05:58:02.571Z,0
2019-01-24T05:59:09.960Z,0
2019-01-24T06:00:18.018Z,0
2019-01-24T06:01:26.072Z,0
2019-01-24T06:02:34.091Z,0
2019-01-24T06:03:42.191Z,4
2019-01-24T06:05:58.272Z,0
2019-01-24T06:07:06.352Z,0
2019-01-24T06:08:14.458Z,0
2019-01-24T06:09:22.451Z,0
2019-01-24T06:10:30.507Z,0
2019-01-24T06:11:38.696Z,0
2019-01-24T06:12:46.602Z,0
2019-01-24T06:13:54.636Z,0
2019-01-24T06:15:02.728Z,0
2019-01-24T06:16:10.782Z,0
2019-01-24T06:17:18.821Z,0
2019-01-24T06:18:26.907Z,0
2019-01-24T06:19:34.926Z,0
2019-01-24T06:20:42.968Z,0
2019-01-24T06:21:51.045Z,0
2019-01-24T06:22:59.094Z,0
2019-01-24T06:24:07.150Z,0
2019-01-24T06:25:15.221Z,0
2019-01-24T06:26:23.266Z,0
2019-01-24T06:27:31.313Z,0
2019-01-24T06:28:39.373Z,0
2019-01-24T06:29:47.420Z,0
2019-01-24T06:30:55.475Z,0
2019-01-24T06:32:03.539Z,0
2019-01-24T06:33:11.589Z,0
2019-01-24T06:34:19.644Z,0
2019-01-24T06:35:27.703Z,4
2019-01-24T06:36:35.766Z,4
2019-01-24T06:37:43.810Z,4
2019-01-24T06:38:51.865Z,0
2019-01-24T06:39:59.923Z,4
2019-01-24T06:41:07.968Z,4
2019-01-24T06:42:16.022Z,4
2019-01-24T06:43:24.094Z,8
2019-01-24T06:44:32.127Z,8
2019-01-24T06:45:40.194Z,8
2019-01-24T06:46:48.246Z,12
2019-01-24T06:47:56.301Z,16
2019-01-24T06:49:04.339Z,20
2019-01-24T06:50:12.414Z,20
2019-01-24T06:51:20.508Z,24
2019-01-24T06:52:28.557Z,32
2019-01-24T06:53:36.586Z,32
2019-01-24T06:54:44.606Z,40
2019-01-24T06:55:52.689Z,48
2019-01-24T06:57:00.731Z,56
2019-01-24T06:58:08.803Z,68
2019-01-24T06:59:16.845Z,76
2019-01-24T07:00:24.913Z,92
2019-01-24T07:01:32.953Z,108
2019-01-24T07:02:41.003Z,120
2019-01-24T07:03:49.066Z,132
2019-01-24T07:04:57.109Z,144
2019-01-24T07:06:05.171Z,164
2019-01-24T07:07:13.231Z,180
2019-01-24T07:08:21.287Z,200
2019-01-24T07:09:29.366Z,220
2019-01-24T07:10:37.383Z,244
2019-01-24T07:11:45.439Z,264
2019-01-24T07:12:53.505Z,292
2019-01-24T07:14:01.556Z,324
2019-01-24T07:15:09.613Z,360
2019-01-24T07:16:17.659Z,400
2019-01-24T07:17:25.719Z,444
2019-01-24T07:18:33.766Z,492
2019-01-24T07:19:41.822Z,544
2019-01-24T07:20:49.893Z,608
2019-01-24T07:21:57.929Z,664
2019-01-24T07:23:05.988Z,720
2019-01-24T07:24:14.015Z,764
2019-01-24T07:25:22.101Z,796
2019-01-24T07:26:30.141Z,828
2019-01-24T07:27:38.247Z,864
2019-01-24T07:28:46.259Z,904
2019-01-24T07:29:54.312Z,940
2019-01-24T07:31:02.379Z,960
2019-01-24T07:32:10.431Z,980
2019-01-24T07:33:18.468Z,996
2019-01-24T07:34:26.523Z,1020
2019-01-24T07:35:34.592Z,1048
2019-01-24T07:36:42.728Z,1068
2019-01-24T07:37:50.708Z,1088
2019-01-24T07:38:58.737Z,1112
2019-01-24T07:40:06.803Z,1120
2019-01-24T07:41:14.863Z,1112
2019-01-24T07:42:22.900Z,1100
2019-01-24T07:43:30.955Z,1104
2019-01-24T07:44:39.017Z,1116
2019-01-24T07:45:47.106Z,1112
2019-01-24T07:46:55.113Z,1100
2019-01-24T07:48:03.216Z,1096
2019-01-24T07:49:11.240Z,1104
2019-01-24T07:50:19.294Z,1148
2019-01-24T07:51:27.341Z,1204
2019-01-24T07:52:35.406Z,1260
2019-01-24T07:53:43.453Z,1312
2019-01-24T07:54:51.511Z,1360
2019-01-24T07:55:59.566Z,1444
2019-01-24T07:57:07.611Z,1540
2019-01-24T07:58:15.670Z,1640
2019-01-24T07:59:23.725Z,1728
2019-01-24T08:00:31.784Z,1816
2019-01-24T08:01:39.832Z,1924
2019-01-24T08:02:47.898Z,2016
2019-01-24T08:03:55.925Z,2080
2019-01-24T08:05:03.999Z,2112
2019-01-24T08:06:12.085Z,2156
2019-01-24T08:07:20.112Z,2232
2019-01-24T08:08:28.161Z,2304
2019-01-24T08:09:36.213Z,2352
2019-01-24T08:10:44.267Z,2392
2019-01-24T08:11:52.308Z,2468
2019-01-24T08:13:00.406Z,2544
2019-01-24T08:14:08.454Z,2580
2019-01-24T08:15:16.487Z,2636
2019-01-24T08:16:24.530Z,2712
2019-01-24T08:17:32.601Z,2772
2019-01-24T08:18:40.645Z,2764
2019-01-24T08:19:48.710Z,2668
2019-01-24T08:20:56.766Z,2740
2019-01-24T08:22:04.811Z,2840
2019-01-24T08:23:12.885Z,2920
2019-01-24T08:24:20.924Z,3044
2019-01-24T08:25:28.985Z,3132
2019-01-24T08:26:37.082Z,3144
2019-01-24T08:27:45.088Z,3164
2019-01-24T08:28:53.146Z,3232
2019-01-24T08:30:01.204Z,3336
2019-01-24T08:31:09.304Z,3404
2019-01-24T08:32:17.314Z,3412
2019-01-24T08:33:25.376Z,3460
2019-01-24T08:34:33.414Z,3464
2019-01-24T08:35:41.486Z,3444
2019-01-24T08:36:49.545Z,3432
2019-01-24T08:37:57.602Z,3472
2019-01-24T08:39:05.651Z,3476
2019-01-24T08:40:13.705Z,3436
2019-01-24T08:41:21.769Z,3516
2019-01-24T08:42:29.910Z,3632
2019-01-24T08:43:37.870Z,3824
2019-01-24T08:44:45.952Z,3984
2019-01-24T08:45:54.028Z,4120
2019-01-24T08:47:02.028Z,4244
2019-01-24T08:48:10.096Z,4328
2019-01-24T08:49:18.150Z,4308
2019-01-24T08:50:26.203Z,4332
2019-01-24T08:51:34.235Z,4380
2019-01-24T08:52:42.316Z,4368
2019-01-24T08:53:50.360Z,4316
2019-01-24T08:54:58.417Z,4296
2019-01-24T08:56:06.482Z,4300
2019-01-24T08:57:14.525Z,4292
2019-01-24T08:58:22.588Z,4268
2019-01-24T08:59:30.665Z,4252
2019-01-24T09:00:38.695Z,4324
2019-01-24T09:01:46.781Z,4424
2019-01-24T09:02:54.806Z,4488
2019-01-24T09:04:02.872Z,4564
2019-01-24T09:05:10.920Z,4616
2019-01-24T09:06:22.475Z,4672
2019-01-24T09:07:27.028Z,4860
2019-01-24T09:08:35.097Z,5012
2019-01-24T09:09:43.143Z,5056
2019-01-24T09:10:51.202Z,5044
2019-01-24T09:11:59.257Z,5184
2019-01-24T09:13:07.304Z,5348
2019-01-24T09:14:15.366Z,5344
2019-01-24T09:15:23.451Z,5148
2019-01-24T09:16:31.479Z,4768
2019-01-24T09:17:39.525Z,4420
2019-01-24T09:18:47.582Z,4276
2019-01-24T09:19:55.657Z,4284
2019-01-24T09:21:03.707Z,4332
2019-01-24T09:22:11.762Z,4420
2019-01-24T09:23:19.847Z,4440
2019-01-24T09:24:27.870Z,4420
2019-01-24T09:25:35.923Z,4404
2019-01-24T09:26:43.975Z,4424
2019-01-24T09:27:52.021Z,4556
2019-01-24T09:29:00.103Z,4648
2019-01-24T09:30:08.145Z,4872
2019-01-24T09:31:16.205Z,5048
2019-01-24T09:32:24.236Z,4952
2019-01-24T09:33:32.326Z,4868
2019-01-24T09:34:40.362Z,5060
2019-01-24T09:35:48.427Z,5112
2019-01-24T09:36:56.500Z,5140
2019-01-24T09:38:04.524Z,5200
2019-01-24T09:39:12.593Z,5000
2019-01-24T09:40:20.652Z,4992
2019-01-24T09:41:28.743Z,5008
2019-01-24T09:42:36.791Z,4988
2019-01-24T09:43:44.795Z,5040
2019-01-24T09:44:52.868Z,4968
2019-01-24T09:46:00.936Z,5008
2019-01-24T09:47:08.992Z,4896
2019-01-24T09:48:17.036Z,4780
2019-01-24T09:49:25.101Z,4704
2019-01-24T09:50:33.153Z,4664
2019-01-24T09:51:41.217Z,4652
2019-01-24T09:52:49.276Z,4612
2019-01-24T09:53:57.328Z,4720
2019-01-24T09:55:05.411Z,5132
2019-01-24T09:56:13.442Z,5412
2019-01-24T09:57:21.494Z,5768
2019-01-24T09:58:29.546Z,6196
2019-01-24T09:59:37.643Z,6540
2019-01-24T10:00:45.669Z,6496
2019-01-24T10:01:53.748Z,6688
2019-01-24T10:03:01.811Z,6696
2019-01-24T10:04:09.824Z,6580
2019-01-24T10:05:17.886Z,6736
2019-01-24T10:06:25.945Z,6688
2019-01-24T10:07:34.009Z,6820
2019-01-24T10:08:42.052Z,6936
2019-01-24T10:09:50.100Z,6900
2019-01-24T10:10:58.165Z,6728
2019-01-24T10:12:06.220Z,6540
2019-01-24T10:13:14.260Z,6124
2019-01-24T10:14:22.327Z,6052
2019-01-24T10:15:30.405Z,5868
2019-01-24T10:16:38.445Z,5568
2019-01-24T10:17:46.515Z,5408
2019-01-24T10:18:54.549Z,5352
2019-01-24T10:20:02.634Z,5436
2019-01-24T10:21:10.711Z,5432
2019-01-24T10:22:18.769Z,5392
2019-01-24T10:23:26.782Z,5384
2019-01-24T10:24:34.831Z,5288
2019-01-24T10:25:42.907Z,5064
2019-01-24T10:26:50.958Z,4872
2019-01-24T10:27:59.003Z,4752
2019-01-24T10:29:07.062Z,4748
2019-01-24T10:30:15.119Z,4792
2019-01-24T10:31:23.172Z,4684
2019-01-24T10:32:31.231Z,4800
2019-01-24T10:33:39.295Z,5000
2019-01-24T10:34:47.370Z,5108
2019-01-24T10:35:55.419Z,5148
2019-01-24T10:37:03.480Z,5156
2019-01-24T10:38:11.519Z,5208
2019-01-24T10:39:19.593Z,5280
2019-01-24T10:40:27.676Z,5500
2019-01-24T10:41:35.715Z,5684
2019-01-24T10:42:43.744Z,5516
2019-01-24T10:43:51.813Z,5228
2019-01-24T10:44:59.891Z,5240
2019-01-24T10:46:07.938Z,5436
2019-01-24T10:47:15.963Z,5900
2019-01-24T10:48:24.022Z,6176
2019-01-24T10:49:32.088Z,6204
2019-01-24T10:50:40.138Z,5984
2019-01-24T10:51:48.218Z,5748
2019-01-24T10:52:56.264Z,5540
2019-01-24T10:54:04.310Z,5496
2019-01-24T10:55:13.627Z,5616
2019-01-24T10:56:20.424Z,6000
2019-01-24T10:57:28.500Z,6316
2019-01-24T10:58:36.567Z,6284
2019-01-24T10:59:44.587Z,6024
2019-01-24T11:00:52.979Z,5804
2019-01-24T11:02:00.759Z,5328
2019-01-24T11:03:08.769Z,5060
2019-01-24T11:04:16.821Z,4996
2019-01-24T11:05:24.884Z,5244
2019-01-24T11:06:32.931Z,5516
2019-01-24T11:07:41.004Z,5596
2019-01-24T11:08:49.045Z,5972
2019-01-24T11:09:57.110Z,6636
2019-01-24T11:11:05.175Z,6960
2019-01-24T11:12:13.223Z,6884
2019-01-24T11:13:21.282Z,6604
2019-01-24T11:14:29.324Z,6528
2019-01-24T11:15:37.401Z,6916
2019-01-24T11:16:45.456Z,7280
2019-01-24T11:17:53.529Z,6980
2019-01-24T11:19:01.620Z,6732
2019-01-24T11:20:09.615Z,6816
2019-01-24T11:21:17.678Z,7064
2019-01-24T11:22:25.746Z,7144
2019-01-24T11:23:33.779Z,7068
2019-01-24T11:24:41.862Z,7196
2019-01-24T11:25:49.894Z,7520
2019-01-24T11:26:57.956Z,7800
2019-01-24T11:28:06.021Z,7996
2019-01-24T11:29:14.096Z,8116
2019-01-24T11:30:22.140Z,8468
2019-01-24T11:31:30.184Z,9080
2019-01-24T11:32:38.242Z,9436
2019-01-24T11:33:46.311Z,9488
2019-01-24T11:34:54.343Z,9412
2019-01-24T11:36:02.439Z,9172
2019-01-24T11:37:10.492Z,9012
2019-01-24T11:38:18.560Z,8708
2019-01-24T11:39:26.607Z,8376
2019-01-24T11:40:34.633Z,8172
2019-01-24T11:41:42.709Z,8136
2019-01-24T11:42:50.755Z,8208
2019-01-24T11:43:58.818Z,8276
2019-01-24T11:45:06.878Z,8436
2019-01-24T11:46:14.923Z,8572
2019-01-24T11:47:22.993Z,8664
2019-01-24T11:48:31.052Z,9008
2019-01-24T11:49:39.116Z,9152
2019-01-24T11:50:47.160Z,8864
2019-01-24T11:51:55.226Z,8672
2019-01-24T11:53:03.274Z,8656
2019-01-24T11:54:11.357Z,8528
2019-01-24T11:55:19.411Z,8416
2019-01-24T11:56:27.488Z,8356
2019-01-24T11:57:35.508Z,8384
2019-01-24T11:58:43.577Z,8516
2019-01-24T11:59:51.632Z,8516
2019-01-24T12:00:59.708Z,8524
2019-01-24T12:02:07.735Z,8488
2019-01-24T12:03:15.798Z,8484
2019-01-24T12:04:23.845Z,8368
2019-01-24T12:05:31.913Z,8260
2019-01-24T12:06:39.971Z,8000
2019-01-24T12:07:48.027Z,7804
2019-01-24T12:08:56.103Z,7672
2019-01-24T12:10:04.134Z,7332
2019-01-24T12:11:12.209Z,6912
2019-01-24T12:12:20.270Z,6616
2019-01-24T12:13:28.320Z,6288
2019-01-24T12:14:36.430Z,5960
2019-01-24T12:15:44.452Z,5560
2019-01-24T12:16:52.504Z,5480
2019-01-24T12:18:00.572Z,5364
2019-01-24T12:19:08.619Z,5560
2019-01-24T12:20:16.662Z,5704
2019-01-24T12:21:24.727Z,5708
2019-01-24T12:22:32.784Z,5508
2019-01-24T12:23:40.831Z,5276
2019-01-24T12:24:48.909Z,5320
2019-01-24T12:25:56.946Z,5312
2019-01-24T12:27:05.007Z,5144
2019-01-24T12:28:13.064Z,5080
2019-01-24T12:29:21.120Z,5116
2019-01-24T12:30:29.183Z,5216
2019-01-24T12:31:37.246Z,5040
2019-01-24T12:32:45.299Z,5012
2019-01-24T12:33:53.356Z,4964
2019-01-24T12:35:01.408Z,4776
2019-01-24T12:36:09.515Z,4496
2019-01-24T12:37:17.528Z,4356
2019-01-24T12:38:25.585Z,4312
2019-01-24T12:39:33.638Z,4416
2019-01-24T12:40:41.701Z,4516
2019-01-24T12:41:49.749Z,4408
2019-01-24T12:42:57.826Z,4304
2019-01-24T12:44:05.860Z,4512
2019-01-24T12:45:13.930Z,4804
2019-01-24T12:46:21.982Z,4424
2019-01-24T12:47:30.098Z,4168
2019-01-24T12:48:38.098Z,4308
2019-01-24T12:49:46.153Z,4456
2019-01-24T12:50:54.192Z,4400
2019-01-24T12:52:02.276Z,4180
2019-01-24T12:53:10.340Z,4156
2019-01-24T12:54:18.438Z,4148
2019-01-24T12:55:26.432Z,4272
2019-01-24T12:56:34.479Z,4060
2019-01-24T12:57:42.557Z,3740
2019-01-24T12:58:50.637Z,3712
2019-01-24T12:59:59.811Z,3852
2019-01-24T13:01:06.734Z,3848
2019-01-24T13:02:14.816Z,3856
2019-01-24T13:03:22.869Z,3968
2019-01-24T13:04:30.915Z,4064
2019-01-24T13:05:38.976Z,4152
2019-01-24T13:06:47.016Z,4288
2019-01-24T13:07:55.102Z,4404
2019-01-24T13:09:03.144Z,4492
2019-01-24T13:10:11.191Z,4424
2019-01-24T13:11:19.255Z,4376
2019-01-24T13:12:27.315Z,4344
2019-01-24T13:13:35.402Z,4236
2019-01-24T13:14:43.416Z,3996
2019-01-24T13:15:51.486Z,3820
2019-01-24T13:16:59.535Z,3860
2019-01-24T13:18:07.589Z,3812
2019-01-24T13:19:15.658Z,3756
2019-01-24T13:20:23.701Z,3620
2019-01-24T13:21:31.761Z,3548
2019-01-24T13:22:39.818Z,3444
2019-01-24T13:23:47.887Z,3328
2019-01-24T13:24:55.924Z,3220
2019-01-24T13:26:03.997Z,3192
2019-01-24T13:27:12.032Z,3156
2019-01-24T13:28:20.100Z,3000
2019-01-24T13:29:28.152Z,2916
2019-01-24T13:30:36.253Z,2976
2019-01-24T13:31:44.249Z,3040
2019-01-24T13:32:52.330Z,2972
2019-01-24T13:34:00.443Z,2908
2019-01-24T13:35:08.437Z,2884
2019-01-24T13:36:16.487Z,2712
2019-01-24T13:37:25.820Z,2504
2019-01-24T13:38:32.601Z,2372
2019-01-24T13:39:40.658Z,2264
2019-01-24T13:40:48.711Z,2288
2019-01-24T13:41:56.771Z,2268
2019-01-24T13:43:04.809Z,2220
2019-01-24T13:44:12.899Z,2200
2019-01-24T13:45:20.934Z,2264
2019-01-24T13:46:28.986Z,2368
2019-01-24T13:47:37.053Z,2416
2019-01-24T13:48:45.124Z,2432
2019-01-24T13:49:53.160Z,2420
2019-01-24T13:51:01.269Z,2416
2019-01-24T13:52:09.550Z,2348
2019-01-24T13:53:17.316Z,2248
2019-01-24T13:54:25.402Z,2172
2019-01-24T13:55:33.435Z,2164
2019-01-24T13:56:41.480Z,2180
2019-01-24T13:57:49.547Z,2044
2019-01-24T13:58:57.594Z,1936
2019-01-24T14:00:05.661Z,1904
2019-01-24T14:01:13.722Z,1884
2019-01-24T14:02:21.785Z,1828
2019-01-24T14:03:29.811Z,1776
2019-01-24T14:04:37.868Z,1736
2019-01-24T14:05:45.948Z,1736
2019-01-24T14:06:53.978Z,1740
2019-01-24T14:08:02.052Z,1712
2019-01-24T14:09:10.110Z,1740
2019-01-24T14:10:18.167Z,1776
2019-01-24T14:11:26.197Z,1864
2019-01-24T14:12:34.240Z,1964
2019-01-24T14:13:42.314Z,2060
2019-01-24T14:14:50.385Z,2068
2019-01-24T14:15:58.434Z,1988
2019-01-24T14:17:06.483Z,1956
2019-01-24T14:18:14.533Z,1972
2019-01-24T14:19:22.627Z,2100
2019-01-24T14:20:30.655Z,2236
2019-01-24T14:21:38.708Z,2224
2019-01-24T14:22:46.768Z,2188
2019-01-24T14:23:54.816Z,2152
2019-01-24T14:25:02.868Z,2092
2019-01-24T14:26:10.935Z,2032
2019-01-24T14:27:18.987Z,2024
2019-01-24T14:28:27.064Z,2052
2019-01-24T14:29:35.091Z,2164
2019-01-24T14:30:43.139Z,2260
2019-01-24T14:31:51.252Z,2332
2019-01-24T14:32:59.263Z,2304
2019-01-24T14:34:07.304Z,2276
2019-01-24T14:35:15.367Z,2192
2019-01-24T14:36:25.357Z,2132
2019-01-24T14:37:31.466Z,2096
2019-01-24T14:38:39.521Z,2024
2019-01-24T14:39:47.572Z,2016
2019-01-24T14:40:55.648Z,1872
2019-01-24T14:42:03.693Z,1808
2019-01-24T14:43:11.744Z,1760
2019-01-24T14:44:19.787Z,1900
2019-01-24T14:45:27.835Z,2064
2019-01-24T14:46:35.948Z,2116
2019-01-24T14:47:43.958Z,2100
2019-01-24T14:48:52.062Z,2080
2019-01-24T14:50:00.066Z,2068
2019-01-24T14:51:08.131Z,2072
2019-01-24T14:52:16.192Z,2044
2019-01-24T14:53:24.231Z,1940
2019-01-24T14:54:32.300Z,1856
2019-01-24T14:55:40.374Z,1776
2019-01-24T14:56:48.404Z,1752
2019-01-24T14:57:56.465Z,1764
2019-01-24T14:59:04.506Z,1792
2019-01-24T15:00:12.576Z,1836
2019-01-24T15:01:20.621Z,1876
2019-01-24T15:02:28.699Z,1956
2019-01-24T15:03:36.736Z,2016
2019-01-24T15:04:44.778Z,2048
2019-01-24T15:05:52.843Z,2000
2019-01-24T15:07:00.932Z,1972
2019-01-24T15:08:08.958Z,1956
2019-01-24T15:09:17.014Z,2004
2019-01-24T15:10:25.068Z,2088
2019-01-24T15:11:33.118Z,2012
2019-01-24T15:12:41.180Z,1900
2019-01-24T15:13:49.223Z,1824
2019-01-24T15:14:57.283Z,1740
2019-01-24T15:16:05.329Z,1692
2019-01-24T15:17:13.412Z,1648
2019-01-24T15:18:21.443Z,1640
2019-01-24T15:19:29.495Z,1556
2019-01-24T15:20:37.552Z,1476
2019-01-24T15:21:45.611Z,1396
2019-01-24T15:22:53.652Z,1236
2019-01-24T15:24:01.727Z,1088
2019-01-24T15:25:09.817Z,924
2019-01-24T15:26:17.823Z,760
2019-01-24T15:27:25.879Z,672
2019-01-24T15:28:33.933Z,608
2019-01-24T15:29:41.984Z,548
2019-01-24T15:30:50.036Z,512
2019-01-24T15:31:58.109Z,500
2019-01-24T15:33:06.147Z,508
2019-01-24T15:34:14.175Z,524
2019-01-24T15:35:22.261Z,524
2019-01-24T15:36:30.304Z,544
2019-01-24T15:37:38.374Z,552
2019-01-24T15:38:46.426Z,560
2019-01-24T15:39:54.467Z,548
2019-01-24T15:41:02.547Z,524
2019-01-24T15:42:10.606Z,472
2019-01-24T15:43:18.673Z,432
2019-01-24T15:44:26.712Z,408
2019-01-24T15:45:34.731Z,388
2019-01-24T15:46:42.796Z,368
2019-01-24T15:47:50.859Z,344
2019-01-24T15:48:58.911Z,324
2019-01-24T15:50:06.965Z,304